sensor_id;sensor_type;location;lat;lon;timestamp;P1;durP1;ratioP1;P2;durP2;ratioP2
16727;SDS011;8482;54.396;18.590;2023-07-16T00:01:45;6.10;;;4.10;;
16727;SDS011;8482;54.396;18.590;2023-07-16T00:04:11;7.25;;;4.68;;
16727;SDS011;8482;54.396;18.590;2023-07-16T00:06:37;5.15;;;3.17;;
16727;SDS011;8482;54.396;18.590;2023-07-16T00:09:03;4.82;;;3.20;;
16727;SDS011;8482;54.396;18.590;2023-07-16T00:11:29;5.47;;;3.42;;
16727;SDS011;8482;54.396;18.590;2023-07-16T00:13:55;6.93;;;3.30;;
16727;SDS011;8482;54.396;18.590;2023-07-16T00:16:21;5.15;;;3.47;;
16727;SDS011;8482;54.396;18.590;2023-07-16T00:18:47;5.60;;;3.40;;
16727;SDS011;8482;54.396;18.590;2023-07-16T00:21:13;5.07;;;3.38;;
16727;SDS011;8482;54.396;18.590;2023-07-16T00:23:39;4.78;;;2.97;;
16727;SDS011;8482;54.396;18.590;2023-07-16T00:26:04;7.18;;;3.80;;
16727;SDS011;8482;54.396;18.590;2023-07-16T00:28:30;6.68;;;3.80;;
16727;SDS011;8482;54.396;18.590;2023-07-16T00:30:56;6.05;;;3.83;;
16727;SDS011;8482;54.396;18.590;2023-07-16T00:33:22;5.55;;;3.70;;
16727;SDS011;8482;54.396;18.590;2023-07-16T00:35:48;5.32;;;3.60;;
16727;SDS011;8482;54.396;18.590;2023-07-16T00:38:18;4.90;;;3.15;;
16727;SDS011;8482;54.396;18.590;2023-07-16T00:40:48;5.65;;;3.70;;
16727;SDS011;8482;54.396;18.590;2023-07-16T00:43:14;6.25;;;4.18;;
16727;SDS011;8482;54.396;18.590;2023-07-16T00:45:40;4.78;;;3.70;;
16727;SDS011;8482;54.396;18.590;2023-07-16T00:48:10;5.50;;;3.53;;
16727;SDS011;8482;54.396;18.590;2023-07-16T00:50:38;5.72;;;3.88;;
16727;SDS011;8482;54.396;18.590;2023-07-16T00:53:05;7.72;;;3.83;;
16727;SDS011;8482;54.396;18.590;2023-07-16T00:55:32;5.40;;;3.97;;
16727;SDS011;8482;54.396;18.590;2023-07-16T00:58:01;6.57;;;4.00;;
16727;SDS011;8482;54.396;18.590;2023-07-16T01:00:33;5.43;;;3.35;;
16727;SDS011;8482;54.396;18.590;2023-07-16T01:03:04;6.55;;;4.00;;
16727;SDS011;8482;54.396;18.590;2023-07-16T01:05:49;6.43;;;4.03;;
16727;SDS011;8482;54.396;18.590;2023-07-16T01:08:32;5.95;;;3.83;;
16727;SDS011;8482;54.396;18.590;2023-07-16T01:11:06;6.00;;;3.70;;
16727;SDS011;8482;54.396;18.590;2023-07-16T01:13:34;5.28;;;3.33;;
16727;SDS011;8482;54.396;18.590;2023-07-16T01:16:02;5.50;;;3.28;;
16727;SDS011;8482;54.396;18.590;2023-07-16T01:18:28;5.22;;;3.50;;
16727;SDS011;8482;54.396;18.590;2023-07-16T01:20:54;4.45;;;3.03;;
16727;SDS011;8482;54.396;18.590;2023-07-16T01:31:34;5.55;;;3.70;;
16727;SDS011;8482;54.396;18.590;2023-07-16T01:34:00;5.72;;;3.53;;
16727;SDS011;8482;54.396;18.590;2023-07-16T01:36:30;4.68;;;3.20;;
16727;SDS011;8482;54.396;18.590;2023-07-16T01:38:59;4.85;;;3.30;;
16727;SDS011;8482;54.396;18.590;2023-07-16T01:41:26;4.95;;;3.30;;
16727;SDS011;8482;54.396;18.590;2023-07-16T01:43:52;5.78;;;3.42;;
16727;SDS011;8482;54.396;18.590;2023-07-16T01:46:17;5.05;;;3.60;;
16727;SDS011;8482;54.396;18.590;2023-07-16T01:48:44;6.32;;;3.70;;
16727;SDS011;8482;54.396;18.590;2023-07-16T01:51:10;7.22;;;3.85;;
16727;SDS011;8482;54.396;18.590;2023-07-16T01:53:39;5.88;;;3.58;;
16727;SDS011;8482;54.396;18.590;2023-07-16T01:56:05;6.18;;;3.83;;
16727;SDS011;8482;54.396;18.590;2023-07-16T01:58:31;5.05;;;3.35;;
16727;SDS011;8482;54.396;18.590;2023-07-16T02:00:57;6.18;;;4.05;;
16727;SDS011;8482;54.396;18.590;2023-07-16T02:03:23;5.45;;;3.38;;
16727;SDS011;8482;54.396;18.590;2023-07-16T02:05:49;6.60;;;4.10;;
16727;SDS011;8482;54.396;18.590;2023-07-16T02:08:16;5.60;;;3.70;;
16727;SDS011;8482;54.396;18.590;2023-07-16T02:10:43;7.68;;;3.75;;
16727;SDS011;8482;54.396;18.590;2023-07-16T02:13:09;6.82;;;3.50;;
16727;SDS011;8482;54.396;18.590;2023-07-16T02:15:35;5.32;;;3.53;;
16727;SDS011;8482;54.396;18.590;2023-07-16T02:18:01;4.85;;;3.10;;
16727;SDS011;8482;54.396;18.590;2023-07-16T02:20:29;6.38;;;4.00;;
16727;SDS011;8482;54.396;18.590;2023-07-16T02:22:55;6.38;;;3.88;;
16727;SDS011;8482;54.396;18.590;2023-07-16T02:25:21;6.90;;;3.70;;
16727;SDS011;8482;54.396;18.590;2023-07-16T02:27:47;6.07;;;3.92;;
16727;SDS011;8482;54.396;18.590;2023-07-16T02:30:13;7.15;;;4.15;;
16727;SDS011;8482;54.396;18.590;2023-07-16T02:32:40;5.28;;;3.60;;
16727;SDS011;8482;54.396;18.590;2023-07-16T02:35:06;6.32;;;3.88;;
16727;SDS011;8482;54.396;18.590;2023-07-16T02:37:33;5.75;;;4.05;;
16727;SDS011;8482;54.396;18.590;2023-07-16T02:39:59;5.75;;;3.78;;
16727;SDS011;8482;54.396;18.590;2023-07-16T02:42:25;6.20;;;3.70;;
16727;SDS011;8482;54.396;18.590;2023-07-16T02:44:51;5.20;;;3.25;;
16727;SDS011;8482;54.396;18.590;2023-07-16T02:47:17;5.80;;;4.05;;
16727;SDS011;8482;54.396;18.590;2023-07-16T02:49:43;5.00;;;3.90;;
16727;SDS011;8482;54.396;18.590;2023-07-16T02:52:09;5.80;;;4.00;;
16727;SDS011;8482;54.396;18.590;2023-07-16T02:54:35;5.85;;;4.15;;
16727;SDS011;8482;54.396;18.590;2023-07-16T02:57:01;5.60;;;4.00;;
16727;SDS011;8482;54.396;18.590;2023-07-16T02:59:28;6.55;;;3.85;;
16727;SDS011;8482;54.396;18.590;2023-07-16T03:01:54;6.35;;;3.80;;
16727;SDS011;8482;54.396;18.590;2023-07-16T03:04:20;5.57;;;4.05;;
16727;SDS011;8482;54.396;18.590;2023-07-16T03:06:46;6.38;;;4.18;;
16727;SDS011;8482;54.396;18.590;2023-07-16T03:09:11;6.05;;;4.10;;
16727;SDS011;8482;54.396;18.590;2023-07-16T03:11:38;6.15;;;4.00;;
16727;SDS011;8482;54.396;18.590;2023-07-16T03:14:03;5.07;;;3.75;;
16727;SDS011;8482;54.396;18.590;2023-07-16T03:16:29;6.80;;;4.13;;
16727;SDS011;8482;54.396;18.590;2023-07-16T03:18:55;6.72;;;4.18;;
16727;SDS011;8482;54.396;18.590;2023-07-16T03:21:21;5.95;;;3.85;;
16727;SDS011;8482;54.396;18.590;2023-07-16T03:23:47;5.72;;;4.05;;
16727;SDS011;8482;54.396;18.590;2023-07-16T03:26:12;5.75;;;4.15;;
16727;SDS011;8482;54.396;18.590;2023-07-16T03:28:38;6.95;;;3.60;;
16727;SDS011;8482;54.396;18.590;2023-07-16T03:31:04;6.10;;;4.13;;
16727;SDS011;8482;54.396;18.590;2023-07-16T03:33:30;6.25;;;4.25;;
16727;SDS011;8482;54.396;18.590;2023-07-16T03:35:55;5.75;;;4.07;;
16727;SDS011;8482;54.396;18.590;2023-07-16T03:38:21;6.10;;;4.03;;
16727;SDS011;8482;54.396;18.590;2023-07-16T03:40:48;5.35;;;3.90;;
16727;SDS011;8482;54.396;18.590;2023-07-16T03:43:15;5.85;;;3.90;;
16727;SDS011;8482;54.396;18.590;2023-07-16T03:45:42;5.75;;;3.80;;
16727;SDS011;8482;54.396;18.590;2023-07-16T03:48:08;5.25;;;3.65;;
16727;SDS011;8482;54.396;18.590;2023-07-16T03:50:34;6.13;;;3.97;;
16727;SDS011;8482;54.396;18.590;2023-07-16T03:53:01;6.03;;;4.05;;
16727;SDS011;8482;54.396;18.590;2023-07-16T03:55:28;6.05;;;3.90;;
16727;SDS011;8482;54.396;18.590;2023-07-16T03:57:54;6.57;;;4.28;;
16727;SDS011;8482;54.396;18.590;2023-07-16T04:00:21;6.40;;;4.10;;
16727;SDS011;8482;54.396;18.590;2023-07-16T04:02:47;5.25;;;3.97;;
16727;SDS011;8482;54.396;18.590;2023-07-16T04:05:13;5.45;;;3.83;;
16727;SDS011;8482;54.396;18.590;2023-07-16T04:07:39;5.70;;;4.00;;
16727;SDS011;8482;54.396;18.590;2023-07-16T04:10:04;6.13;;;4.50;;
16727;SDS011;8482;54.396;18.590;2023-07-16T04:12:31;6.45;;;4.30;;
16727;SDS011;8482;54.396;18.590;2023-07-16T04:14:57;6.78;;;3.97;;
16727;SDS011;8482;54.396;18.590;2023-07-16T04:17:24;5.80;;;3.97;;
16727;SDS011;8482;54.396;18.590;2023-07-16T04:19:51;5.50;;;3.80;;
16727;SDS011;8482;54.396;18.590;2023-07-16T04:22:17;5.00;;;3.15;;
16727;SDS011;8482;54.396;18.590;2023-07-16T04:24:43;5.18;;;3.58;;
16727;SDS011;8482;54.396;18.590;2023-07-16T04:27:09;6.28;;;4.00;;
16727;SDS011;8482;54.396;18.590;2023-07-16T04:29:35;5.85;;;3.97;;
16727;SDS011;8482;54.396;18.590;2023-07-16T04:32:01;4.97;;;3.50;;
16727;SDS011;8482;54.396;18.590;2023-07-16T04:34:28;5.00;;;3.50;;
16727;SDS011;8482;54.396;18.590;2023-07-16T04:36:53;5.38;;;3.72;;
16727;SDS011;8482;54.396;18.590;2023-07-16T04:39:19;5.10;;;3.50;;
16727;SDS011;8482;54.396;18.590;2023-07-16T04:41:45;5.35;;;3.67;;
16727;SDS011;8482;54.396;18.590;2023-07-16T04:44:11;5.03;;;3.22;;
16727;SDS011;8482;54.396;18.590;2023-07-16T04:46:37;5.57;;;3.50;;
16727;SDS011;8482;54.396;18.590;2023-07-16T04:49:02;4.75;;;3.30;;
16727;SDS011;8482;54.396;18.590;2023-07-16T04:51:30;5.45;;;3.80;;
16727;SDS011;8482;54.396;18.590;2023-07-16T04:53:55;6.72;;;4.03;;
16727;SDS011;8482;54.396;18.590;2023-07-16T04:56:21;4.88;;;3.53;;
16727;SDS011;8482;54.396;18.590;2023-07-16T04:58:47;5.35;;;3.85;;
16727;SDS011;8482;54.396;18.590;2023-07-16T05:01:13;5.85;;;4.00;;
16727;SDS011;8482;54.396;18.590;2023-07-16T05:03:39;6.05;;;3.58;;
16727;SDS011;8482;54.396;18.590;2023-07-16T05:06:05;6.65;;;4.30;;
16727;SDS011;8482;54.396;18.590;2023-07-16T05:08:30;5.88;;;4.10;;
16727;SDS011;8482;54.396;18.590;2023-07-16T05:10:56;6.45;;;4.00;;
16727;SDS011;8482;54.396;18.590;2023-07-16T05:13:24;7.05;;;4.25;;
16727;SDS011;8482;54.396;18.590;2023-07-16T05:15:49;6.57;;;3.75;;
16727;SDS011;8482;54.396;18.590;2023-07-16T05:18:15;5.40;;;3.70;;
16727;SDS011;8482;54.396;18.590;2023-07-16T05:20:41;5.38;;;3.72;;
16727;SDS011;8482;54.396;18.590;2023-07-16T05:23:09;4.85;;;3.42;;
16727;SDS011;8482;54.396;18.590;2023-07-16T05:25:35;5.50;;;3.88;;
16727;SDS011;8482;54.396;18.590;2023-07-16T05:28:01;7.18;;;4.55;;
16727;SDS011;8482;54.396;18.590;2023-07-16T05:30:27;5.93;;;4.05;;
16727;SDS011;8482;54.396;18.590;2023-07-16T05:32:53;6.45;;;4.63;;
16727;SDS011;8482;54.396;18.590;2023-07-16T05:35:18;6.32;;;4.13;;
16727;SDS011;8482;54.396;18.590;2023-07-16T05:37:44;5.35;;;3.60;;
16727;SDS011;8482;54.396;18.590;2023-07-16T05:40:10;6.25;;;4.22;;
16727;SDS011;8482;54.396;18.590;2023-07-16T05:42:36;6.47;;;4.50;;
16727;SDS011;8482;54.396;18.590;2023-07-16T05:45:02;6.60;;;4.40;;
16727;SDS011;8482;54.396;18.590;2023-07-16T05:47:29;6.82;;;4.18;;
16727;SDS011;8482;54.396;18.590;2023-07-16T05:49:55;8.10;;;5.03;;
16727;SDS011;8482;54.396;18.590;2023-07-16T05:52:21;6.15;;;4.43;;
16727;SDS011;8482;54.396;18.590;2023-07-16T05:54:46;6.07;;;4.18;;
16727;SDS011;8482;54.396;18.590;2023-07-16T05:57:12;6.18;;;4.43;;
16727;SDS011;8482;54.396;18.590;2023-07-16T05:59:38;6.75;;;4.70;;
16727;SDS011;8482;54.396;18.590;2023-07-16T06:02:04;7.47;;;5.25;;
16727;SDS011;8482;54.396;18.590;2023-07-16T06:04:31;7.60;;;5.40;;
16727;SDS011;8482;54.396;18.590;2023-07-16T06:06:57;7.03;;;5.15;;
16727;SDS011;8482;54.396;18.590;2023-07-16T06:09:23;8.35;;;5.18;;
16727;SDS011;8482;54.396;18.590;2023-07-16T06:11:49;6.72;;;5.35;;
16727;SDS011;8482;54.396;18.590;2023-07-16T06:14:15;7.70;;;4.93;;
16727;SDS011;8482;54.396;18.590;2023-07-16T06:16:42;6.63;;;4.80;;
16727;SDS011;8482;54.396;18.590;2023-07-16T06:19:08;6.55;;;4.78;;
16727;SDS011;8482;54.396;18.590;2023-07-16T06:21:34;6.70;;;4.70;;
16727;SDS011;8482;54.396;18.590;2023-07-16T06:24:00;8.95;;;5.22;;
16727;SDS011;8482;54.396;18.590;2023-07-16T06:26:26;7.43;;;4.75;;
16727;SDS011;8482;54.396;18.590;2023-07-16T06:28:51;5.93;;;4.40;;
16727;SDS011;8482;54.396;18.590;2023-07-16T06:31:17;5.43;;;3.90;;
16727;SDS011;8482;54.396;18.590;2023-07-16T06:33:43;5.82;;;4.15;;
16727;SDS011;8482;54.396;18.590;2023-07-16T06:36:11;5.35;;;3.80;;
16727;SDS011;8482;54.396;18.590;2023-07-16T06:38:38;6.50;;;4.07;;
16727;SDS011;8482;54.396;18.590;2023-07-16T06:41:04;6.65;;;4.40;;
16727;SDS011;8482;54.396;18.590;2023-07-16T06:43:31;5.80;;;4.32;;
16727;SDS011;8482;54.396;18.590;2023-07-16T06:45:57;6.82;;;4.35;;
16727;SDS011;8482;54.396;18.590;2023-07-16T06:48:23;6.15;;;4.15;;
16727;SDS011;8482;54.396;18.590;2023-07-16T06:50:52;6.25;;;4.32;;
16727;SDS011;8482;54.396;18.590;2023-07-16T06:53:17;5.55;;;3.80;;
16727;SDS011;8482;54.396;18.590;2023-07-16T06:55:43;6.72;;;4.70;;
16727;SDS011;8482;54.396;18.590;2023-07-16T06:58:13;6.55;;;4.85;;
16727;SDS011;8482;54.396;18.590;2023-07-16T07:00:40;8.57;;;5.55;;
16727;SDS011;8482;54.396;18.590;2023-07-16T07:03:06;6.80;;;4.40;;
16727;SDS011;8482;54.396;18.590;2023-07-16T07:05:32;6.40;;;4.78;;
16727;SDS011;8482;54.396;18.590;2023-07-16T07:08:00;7.20;;;5.18;;
16727;SDS011;8482;54.396;18.590;2023-07-16T07:10:27;9.10;;;5.57;;
16727;SDS011;8482;54.396;18.590;2023-07-16T07:12:52;6.93;;;5.45;;
16727;SDS011;8482;54.396;18.590;2023-07-16T07:15:18;5.65;;;4.28;;
16727;SDS011;8482;54.396;18.590;2023-07-16T07:17:44;6.13;;;4.38;;
16727;SDS011;8482;54.396;18.590;2023-07-16T07:20:11;6.35;;;4.55;;
16727;SDS011;8482;54.396;18.590;2023-07-16T07:22:38;8.55;;;4.47;;
16727;SDS011;8482;54.396;18.590;2023-07-16T07:25:04;6.55;;;4.28;;
16727;SDS011;8482;54.396;18.590;2023-07-16T07:27:30;6.85;;;4.80;;
16727;SDS011;8482;54.396;18.590;2023-07-16T07:29:56;7.15;;;5.00;;
16727;SDS011;8482;54.396;18.590;2023-07-16T07:32:22;8.07;;;4.50;;
16727;SDS011;8482;54.396;18.590;2023-07-16T07:34:48;6.95;;;4.90;;
16727;SDS011;8482;54.396;18.590;2023-07-16T07:37:15;7.85;;;5.03;;
16727;SDS011;8482;54.396;18.590;2023-07-16T07:39:41;6.88;;;5.05;;
16727;SDS011;8482;54.396;18.590;2023-07-16T07:42:07;7.43;;;5.18;;
16727;SDS011;8482;54.396;18.590;2023-07-16T07:44:34;7.78;;;5.68;;
16727;SDS011;8482;54.396;18.590;2023-07-16T07:47:00;8.32;;;5.22;;
16727;SDS011;8482;54.396;18.590;2023-07-16T07:49:25;6.30;;;4.90;;
16727;SDS011;8482;54.396;18.590;2023-07-16T07:51:51;7.82;;;6.05;;
16727;SDS011;8482;54.396;18.590;2023-07-16T07:54:17;7.78;;;5.55;;
16727;SDS011;8482;54.396;18.590;2023-07-16T07:56:44;6.85;;;5.47;;
16727;SDS011;8482;54.396;18.590;2023-07-16T07:59:11;6.32;;;4.40;;
16727;SDS011;8482;54.396;18.590;2023-07-16T08:01:37;9.35;;;4.97;;
16727;SDS011;8482;54.396;18.590;2023-07-16T08:04:03;8.18;;;5.32;;
16727;SDS011;8482;54.396;18.590;2023-07-16T08:06:29;8.68;;;4.88;;
16727;SDS011;8482;54.396;18.590;2023-07-16T08:08:54;7.22;;;4.38;;
16727;SDS011;8482;54.396;18.590;2023-07-16T08:11:20;8.98;;;4.53;;
16727;SDS011;8482;54.396;18.590;2023-07-16T08:13:46;5.70;;;3.92;;
16727;SDS011;8482;54.396;18.590;2023-07-16T08:16:12;5.20;;;3.47;;
16727;SDS011;8482;54.396;18.590;2023-07-16T08:18:38;4.97;;;3.42;;
16727;SDS011;8482;54.396;18.590;2023-07-16T08:21:04;5.78;;;3.05;;
16727;SDS011;8482;54.396;18.590;2023-07-16T08:23:29;5.25;;;3.50;;
16727;SDS011;8482;54.396;18.590;2023-07-16T08:25:55;4.95;;;3.35;;
16727;SDS011;8482;54.396;18.590;2023-07-16T08:28:21;4.28;;;3.20;;
16727;SDS011;8482;54.396;18.590;2023-07-16T08:30:47;6.10;;;3.40;;
16727;SDS011;8482;54.396;18.590;2023-07-16T08:33:13;5.65;;;3.47;;
16727;SDS011;8482;54.396;18.590;2023-07-16T08:35:40;6.47;;;3.30;;
16727;SDS011;8482;54.396;18.590;2023-07-16T08:38:07;4.82;;;3.20;;
16727;SDS011;8482;54.396;18.590;2023-07-16T08:40:36;4.65;;;3.05;;
16727;SDS011;8482;54.396;18.590;2023-07-16T08:43:04;3.58;;;2.70;;
16727;SDS011;8482;54.396;18.590;2023-07-16T08:45:34;4.45;;;2.72;;
16727;SDS011;8482;54.396;18.590;2023-07-16T08:48:06;3.85;;;2.67;;
16727;SDS011;8482;54.396;18.590;2023-07-16T08:50:33;4.15;;;2.83;;
16727;SDS011;8482;54.396;18.590;2023-07-16T08:53:03;5.47;;;3.03;;
16727;SDS011;8482;54.396;18.590;2023-07-16T08:55:31;4.03;;;2.40;;
16727;SDS011;8482;54.396;18.590;2023-07-16T08:57:59;3.50;;;2.50;;
16727;SDS011;8482;54.396;18.590;2023-07-16T09:00:26;4.95;;;2.70;;
16727;SDS011;8482;54.396;18.590;2023-07-16T09:02:53;5.18;;;2.95;;
16727;SDS011;8482;54.396;18.590;2023-07-16T09:05:22;5.07;;;3.28;;
16727;SDS011;8482;54.396;18.590;2023-07-16T09:07:49;4.90;;;3.10;;
16727;SDS011;8482;54.396;18.590;2023-07-16T09:10:15;4.45;;;3.00;;
16727;SDS011;8482;54.396;18.590;2023-07-16T09:12:42;5.45;;;2.92;;
16727;SDS011;8482;54.396;18.590;2023-07-16T09:15:13;5.32;;;3.25;;
16727;SDS011;8482;54.396;18.590;2023-07-16T09:17:46;5.68;;;2.90;;
16727;SDS011;8482;54.396;18.590;2023-07-16T09:20:17;4.10;;;2.78;;
16727;SDS011;8482;54.396;18.590;2023-07-16T09:22:44;4.00;;;2.70;;
16727;SDS011;8482;54.396;18.590;2023-07-16T09:25:13;4.93;;;2.65;;
16727;SDS011;8482;54.396;18.590;2023-07-16T09:27:38;3.83;;;2.60;;
16727;SDS011;8482;54.396;18.590;2023-07-16T09:30:05;4.15;;;2.85;;
16727;SDS011;8482;54.396;18.590;2023-07-16T09:32:35;5.90;;;2.97;;
16727;SDS011;8482;54.396;18.590;2023-07-16T09:35:11;4.25;;;2.55;;
16727;SDS011;8482;54.396;18.590;2023-07-16T09:37:40;4.78;;;3.00;;
16727;SDS011;8482;54.396;18.590;2023-07-16T09:40:07;4.82;;;2.92;;
16727;SDS011;8482;54.396;18.590;2023-07-16T09:42:40;5.70;;;2.85;;
16727;SDS011;8482;54.396;18.590;2023-07-16T09:45:08;3.88;;;2.47;;
16727;SDS011;8482;54.396;18.590;2023-07-16T09:47:44;4.05;;;2.90;;
16727;SDS011;8482;54.396;18.590;2023-07-16T09:50:10;3.85;;;2.47;;
16727;SDS011;8482;54.396;18.590;2023-07-16T09:52:37;4.10;;;2.78;;
16727;SDS011;8482;54.396;18.590;2023-07-16T09:55:05;4.78;;;2.97;;
16727;SDS011;8482;54.396;18.590;2023-07-16T09:57:39;3.63;;;2.20;;
16727;SDS011;8482;54.396;18.590;2023-07-16T10:00:11;4.13;;;2.58;;
16727;SDS011;8482;54.396;18.590;2023-07-16T10:02:40;4.28;;;2.83;;
16727;SDS011;8482;54.396;18.590;2023-07-16T10:05:16;4.88;;;3.03;;
16727;SDS011;8482;54.396;18.590;2023-07-16T10:07:51;4.63;;;2.65;;
16727;SDS011;8482;54.396;18.590;2023-07-16T10:10:38;4.32;;;2.97;;
16727;SDS011;8482;54.396;18.590;2023-07-16T10:13:11;4.55;;;2.67;;
16727;SDS011;8482;54.396;18.590;2023-07-16T10:15:38;5.22;;;3.42;;
16727;SDS011;8482;54.396;18.590;2023-07-16T10:18:22;5.53;;;3.10;;
16727;SDS011;8482;54.396;18.590;2023-07-16T10:20:59;4.78;;;2.83;;
16727;SDS011;8482;54.396;18.590;2023-07-16T10:23:37;4.72;;;2.70;;
16727;SDS011;8482;54.396;18.590;2023-07-16T10:26:13;3.85;;;2.72;;
16727;SDS011;8482;54.396;18.590;2023-07-16T10:28:40;3.90;;;2.60;;
16727;SDS011;8482;54.396;18.590;2023-07-16T10:31:06;3.40;;;2.40;;
16727;SDS011;8482;54.396;18.590;2023-07-16T10:33:59;3.90;;;2.50;;
16727;SDS011;8482;54.396;18.590;2023-07-16T10:36:29;3.38;;;2.08;;
16727;SDS011;8482;54.396;18.590;2023-07-16T10:39:02;3.42;;;2.42;;
16727;SDS011;8482;54.396;18.590;2023-07-16T10:41:30;5.95;;;3.20;;
16727;SDS011;8482;54.396;18.590;2023-07-16T10:43:58;4.22;;;2.67;;
16727;SDS011;8482;54.396;18.590;2023-07-16T10:46:24;4.65;;;2.90;;
16727;SDS011;8482;54.396;18.590;2023-07-16T10:48:50;4.82;;;3.03;;
16727;SDS011;8482;54.396;18.590;2023-07-16T10:51:16;5.25;;;3.28;;
16727;SDS011;8482;54.396;18.590;2023-07-16T10:53:42;6.50;;;3.80;;
16727;SDS011;8482;54.396;18.590;2023-07-16T10:56:08;5.75;;;3.67;;
16727;SDS011;8482;54.396;18.590;2023-07-16T10:58:38;5.03;;;3.15;;
16727;SDS011;8482;54.396;18.590;2023-07-16T11:01:07;5.95;;;3.00;;
16727;SDS011;8482;54.396;18.590;2023-07-16T11:03:34;6.60;;;4.40;;
16727;SDS011;8482;54.396;18.590;2023-07-16T11:06:05;6.70;;;4.15;;
16727;SDS011;8482;54.396;18.590;2023-07-16T11:08:33;5.55;;;3.58;;
16727;SDS011;8482;54.396;18.590;2023-07-16T11:10:59;4.32;;;2.95;;
16727;SDS011;8482;54.396;18.590;2023-07-16T11:13:28;4.60;;;3.08;;
16727;SDS011;8482;54.396;18.590;2023-07-16T11:16:05;5.68;;;3.38;;
16727;SDS011;8482;54.396;18.590;2023-07-16T11:18:33;4.75;;;3.10;;
16727;SDS011;8482;54.396;18.590;2023-07-16T11:20:59;4.43;;;2.90;;
16727;SDS011;8482;54.396;18.590;2023-07-16T11:23:24;4.78;;;3.05;;
16727;SDS011;8482;54.396;18.590;2023-07-16T11:25:51;5.43;;;2.80;;
16727;SDS011;8482;54.396;18.590;2023-07-16T11:28:18;4.38;;;3.15;;
16727;SDS011;8482;54.396;18.590;2023-07-16T11:30:43;4.28;;;2.80;;
16727;SDS011;8482;54.396;18.590;2023-07-16T11:33:12;4.43;;;2.65;;
16727;SDS011;8482;54.396;18.590;2023-07-16T11:35:38;4.40;;;3.10;;
16727;SDS011;8482;54.396;18.590;2023-07-16T11:38:05;4.55;;;2.85;;
16727;SDS011;8482;54.396;18.590;2023-07-16T11:40:33;7.78;;;3.38;;
16727;SDS011;8482;54.396;18.590;2023-07-16T11:43:10;5.55;;;3.47;;
16727;SDS011;8482;54.396;18.590;2023-07-16T11:45:36;4.18;;;3.22;;
16727;SDS011;8482;54.396;18.590;2023-07-16T11:48:03;4.00;;;2.83;;
16727;SDS011;8482;54.396;18.590;2023-07-16T11:50:30;3.58;;;2.65;;
16727;SDS011;8482;54.396;18.590;2023-07-16T11:52:59;4.25;;;2.92;;
16727;SDS011;8482;54.396;18.590;2023-07-16T11:55:26;4.65;;;2.72;;
16727;SDS011;8482;54.396;18.590;2023-07-16T11:57:52;4.05;;;2.90;;
16727;SDS011;8482;54.396;18.590;2023-07-16T12:00:18;6.47;;;2.97;;
16727;SDS011;8482;54.396;18.590;2023-07-16T12:02:44;5.03;;;3.05;;
16727;SDS011;8482;54.396;18.590;2023-07-16T12:05:17;4.10;;;2.42;;
16727;SDS011;8482;54.396;18.590;2023-07-16T12:07:43;3.85;;;2.70;;
16727;SDS011;8482;54.396;18.590;2023-07-16T12:10:09;5.18;;;2.97;;
16727;SDS011;8482;54.396;18.590;2023-07-16T12:12:35;4.90;;;2.83;;
16727;SDS011;8482;54.396;18.590;2023-07-16T12:15:03;4.85;;;2.92;;
16727;SDS011;8482;54.396;18.590;2023-07-16T12:17:33;3.95;;;2.53;;
16727;SDS011;8482;54.396;18.590;2023-07-16T12:19:59;3.50;;;2.35;;
16727;SDS011;8482;54.396;18.590;2023-07-16T12:22:26;3.67;;;2.35;;
16727;SDS011;8482;54.396;18.590;2023-07-16T12:24:52;3.55;;;2.13;;
16727;SDS011;8482;54.396;18.590;2023-07-16T12:27:18;3.70;;;2.20;;
16727;SDS011;8482;54.396;18.590;2023-07-16T12:29:45;3.83;;;2.45;;
16727;SDS011;8482;54.396;18.590;2023-07-16T12:32:11;2.55;;;1.95;;
16727;SDS011;8482;54.396;18.590;2023-07-16T12:34:38;3.47;;;2.35;;
16727;SDS011;8482;54.396;18.590;2023-07-16T12:37:04;3.63;;;2.60;;
16727;SDS011;8482;54.396;18.590;2023-07-16T12:39:31;5.20;;;2.88;;
16727;SDS011;8482;54.396;18.590;2023-07-16T12:41:58;4.38;;;2.85;;
16727;SDS011;8482;54.396;18.590;2023-07-16T12:44:23;4.38;;;2.78;;
16727;SDS011;8482;54.396;18.590;2023-07-16T12:46:49;4.97;;;2.85;;
16727;SDS011;8482;54.396;18.590;2023-07-16T12:49:15;4.57;;;2.60;;
16727;SDS011;8482;54.396;18.590;2023-07-16T12:51:41;3.65;;;2.60;;
16727;SDS011;8482;54.396;18.590;2023-07-16T12:54:07;4.47;;;2.50;;
16727;SDS011;8482;54.396;18.590;2023-07-16T12:56:32;4.20;;;2.78;;
16727;SDS011;8482;54.396;18.590;2023-07-16T12:58:58;4.97;;;3.38;;
16727;SDS011;8482;54.396;18.590;2023-07-16T13:01:24;4.50;;;2.85;;
16727;SDS011;8482;54.396;18.590;2023-07-16T13:03:50;4.63;;;2.60;;
16727;SDS011;8482;54.396;18.590;2023-07-16T13:06:16;3.55;;;2.63;;
16727;SDS011;8482;54.396;18.590;2023-07-16T13:08:41;3.38;;;2.47;;
16727;SDS011;8482;54.396;18.590;2023-07-16T13:11:07;3.70;;;2.25;;
16727;SDS011;8482;54.396;18.590;2023-07-16T13:13:33;4.95;;;2.50;;
16727;SDS011;8482;54.396;18.590;2023-07-16T13:16:00;4.53;;;2.80;;
16727;SDS011;8482;54.396;18.590;2023-07-16T13:18:26;4.05;;;2.40;;
16727;SDS011;8482;54.396;18.590;2023-07-16T13:20:52;3.10;;;2.20;;
16727;SDS011;8482;54.396;18.590;2023-07-16T13:23:18;3.25;;;2.38;;
16727;SDS011;8482;54.396;18.590;2023-07-16T13:25:44;3.65;;;2.50;;
16727;SDS011;8482;54.396;18.590;2023-07-16T13:28:09;3.85;;;2.45;;
16727;SDS011;8482;54.396;18.590;2023-07-16T13:30:35;3.47;;;2.30;;
16727;SDS011;8482;54.396;18.590;2023-07-16T13:33:01;2.70;;;1.85;;
16727;SDS011;8482;54.396;18.590;2023-07-16T13:35:27;3.20;;;2.25;;
16727;SDS011;8482;54.396;18.590;2023-07-16T13:37:53;2.72;;;1.90;;
16727;SDS011;8482;54.396;18.590;2023-07-16T13:40:19;2.60;;;1.75;;
16727;SDS011;8482;54.396;18.590;2023-07-16T13:42:46;3.17;;;1.60;;
16727;SDS011;8482;54.396;18.590;2023-07-16T13:45:13;3.20;;;1.60;;
16727;SDS011;8482;54.396;18.590;2023-07-16T13:47:39;4.05;;;1.55;;
16727;SDS011;8482;54.396;18.590;2023-07-16T13:50:05;3.17;;;1.50;;
16727;SDS011;8482;54.396;18.590;2023-07-16T13:52:31;2.30;;;1.45;;
16727;SDS011;8482;54.396;18.590;2023-07-16T13:54:57;1.45;;;1.30;;
16727;SDS011;8482;54.396;18.590;2023-07-16T13:57:23;2.15;;;1.38;;
16727;SDS011;8482;54.396;18.590;2023-07-16T13:59:49;3.17;;;1.50;;
16727;SDS011;8482;54.396;18.590;2023-07-16T14:02:15;2.20;;;1.40;;
16727;SDS011;8482;54.396;18.590;2023-07-16T14:04:40;3.63;;;1.40;;
16727;SDS011;8482;54.396;18.590;2023-07-16T14:07:06;2.28;;;1.23;;
16727;SDS011;8482;54.396;18.590;2023-07-16T14:09:32;2.08;;;1.45;;
16727;SDS011;8482;54.396;18.590;2023-07-16T14:11:58;2.13;;;1.40;;
16727;SDS011;8482;54.396;18.590;2023-07-16T14:14:24;2.28;;;1.50;;
16727;SDS011;8482;54.396;18.590;2023-07-16T14:16:49;2.53;;;1.70;;
16727;SDS011;8482;54.396;18.590;2023-07-16T14:19:15;4.80;;;1.67;;
16727;SDS011;8482;54.396;18.590;2023-07-16T14:21:41;3.33;;;1.30;;
16727;SDS011;8482;54.396;18.590;2023-07-16T14:24:08;2.78;;;1.63;;
16727;SDS011;8482;54.396;18.590;2023-07-16T14:26:34;3.03;;;1.60;;
16727;SDS011;8482;54.396;18.590;2023-07-16T14:29:00;2.70;;;1.45;;
16727;SDS011;8482;54.396;18.590;2023-07-16T14:31:25;2.10;;;1.20;;
16727;SDS011;8482;54.396;18.590;2023-07-16T14:33:51;2.97;;;1.50;;
16727;SDS011;8482;54.396;18.590;2023-07-16T14:36:17;10.70;;;3.78;;
16727;SDS011;8482;54.396;18.590;2023-07-16T14:38:43;118.10;;;34.80;;
16727;SDS011;8482;54.396;18.590;2023-07-16T14:41:09;120.85;;;34.60;;
16727;SDS011;8482;54.396;18.590;2023-07-16T14:43:35;73.35;;;22.23;;
16727;SDS011;8482;54.396;18.590;2023-07-16T14:46:02;43.65;;;14.18;;
16727;SDS011;8482;54.396;18.590;2023-07-16T14:48:28;29.50;;;10.15;;
16727;SDS011;8482;54.396;18.590;2023-07-16T14:50:54;19.23;;;7.90;;
16727;SDS011;8482;54.396;18.590;2023-07-16T14:53:20;16.10;;;5.32;;
16727;SDS011;8482;54.396;18.590;2023-07-16T14:55:47;9.00;;;3.30;;